Time;durP1;ratioP1;P1;durP2;ratioP2;P2;SDS_P1;SDS_P2;PMS_P1;PMS_P2;Temp;Humidity;BMP_temperature;BMP_pressure;BME280_temperature;BME280_humidity;BME280_pressure;Samples;Min_cycle;Max_cycle;Signal;HPM_P1;HPM_P2
2023/04/27 00:01:51;;;;;;;8.02;5.20;;;7.30;90.30;;;;;;4972063;28;20062;-76
2023/04/27 00:04:17;;;;;;;12.27;5.47;;;7.30;90.30;;;;;;4967523;28;20721;-78
2023/04/27 00:06:43;;;;;;;8.68;4.53;;;7.30;90.40;;;;;;4955203;28;20045;-78
2023/04/27 00:09:09;;;;;;;8.98;4.82;;;7.20;90.40;;;;;;4966785;28;20030;-77
2023/04/27 00:11:34;;;;;;;11.55;5.18;;;7.20;90.40;;;;;;4960143;28;20039;-77
2023/04/27 00:14:00;;;;;;;8.75;4.60;;;7.20;90.50;;;;;;4952725;28;20110;-79
2023/04/27 00:16:26;;;;;;;9.75;3.88;;;7.20;90.60;;;;;;4969038;28;20440;-77
2023/04/27 00:18:52;;;;;;;9.45;3.92;;;7.10;90.60;;;;;;4957547;28;20106;-76
2023/04/27 00:21:17;;;;;;;7.22;4.00;;;7.20;90.60;;;;;;4971579;28;20049;-77
2023/04/27 00:23:43;;;;;;;10.90;4.43;;;7.20;90.70;;;;;;4957210;28;20105;-78
2023/04/27 00:26:09;;;;;;;10.38;4.53;;;7.10;90.80;;;;;;4952837;28;20027;-77
2023/04/27 00:28:34;;;;;;;7.05;4.32;;;7.10;90.80;;;;;;4958210;28;20043;-78
2023/04/27 00:31:02;;;;;;;7.78;3.63;;;7.10;90.80;;;;;;4967482;28;20465;-79
2023/04/27 00:33:28;;;;;;;6.85;3.38;;;7.10;90.90;;;;;;4957999;28;20830;-77
2023/04/27 00:35:54;;;;;;;9.48;4.40;;;7.00;90.90;;;;;;4963929;28;20026;-76
2023/04/27 00:38:19;;;;;;;9.43;5.05;;;7.00;91.00;;;;;;4958941;28;20027;-77
2023/04/27 00:40:45;;;;;;;7.63;3.85;;;7.00;91.00;;;;;;4957921;28;20121;-78
2023/04/27 00:43:11;;;;;;;10.50;4.57;;;7.00;91.00;;;;;;4958250;28;20205;-77
2023/04/27 00:45:42;;;;;;;10.85;4.20;;;7.00;91.10;;;;;;4953366;28;20022;-75
2023/04/27 00:48:09;;;;;;;14.23;4.50;;;7.00;91.10;;;;;;4964132;28;20122;-77
2023/04/27 00:50:37;;;;;;;10.02;4.30;;;7.00;91.10;;;;;;4947666;28;20037;-76
2023/04/27 00:53:06;;;;;;;9.77;4.32;;;7.00;91.10;;;;;;4954762;28;20077;-77
2023/04/27 00:55:35;;;;;;;10.60;4.05;;;6.90;91.20;;;;;;4977728;28;20392;-75
2023/04/27 00:58:00;;;;;;;8.35;3.90;;;7.00;91.10;;;;;;4977122;28;20100;-78
2023/04/27 01:00:26;;;;;;;10.45;3.60;;;6.90;91.20;;;;;;4944424;28;20098;-77
2023/04/27 01:02:52;;;;;;;10.40;4.32;;;6.90;91.20;;;;;;4964746;28;20077;-76
2023/04/27 01:05:18;;;;;;;7.38;3.72;;;6.90;91.30;;;;;;4963996;28;20058;-77
2023/04/27 01:07:44;;;;;;;6.28;3.85;;;6.90;91.30;;;;;;4961659;28;20054;-76
2023/04/27 01:10:09;;;;;;;8.20;3.72;;;6.90;91.20;;;;;;4960155;28;20027;-76
2023/04/27 01:12:35;;;;;;;11.50;3.97;;;6.90;91.20;;;;;;4941683;28;20089;-76
2023/04/27 01:15:01;;;;;;;8.15;3.50;;;6.80;91.30;;;;;;4962733;28;20405;-75
2023/04/27 01:17:26;;;;;;;8.35;3.30;;;6.90;91.50;;;;;;4967845;28;20022;-77
2023/04/27 01:19:54;;;;;;;7.60;3.17;;;6.90;91.40;;;;;;4970336;28;20113;-76
2023/04/27 01:22:20;;;;;;;9.25;2.90;;;6.80;91.40;;;;;;4966204;28;20026;-75
2023/04/27 01:24:46;;;;;;;7.93;3.33;;;6.80;91.30;;;;;;4971898;28;20033;-76
2023/04/27 01:27:12;;;;;;;6.40;3.30;;;6.80;91.30;;;;;;4946096;28;20023;-77
2023/04/27 01:29:39;;;;;;;8.25;2.78;;;6.80;91.30;;;;;;4971289;28;20035;-77
2023/04/27 01:32:05;;;;;;;8.15;3.40;;;6.80;91.40;;;;;;4957387;28;20051;-77
2023/04/27 01:34:30;;;;;;;6.82;3.35;;;6.70;91.30;;;;;;4967945;28;20492;-77
2023/04/27 01:36:56;;;;;;;8.13;2.63;;;6.70;91.30;;;;;;4969149;28;20034;-78
2023/04/27 01:39:22;;;;;;;5.15;2.75;;;6.70;91.30;;;;;;4940615;29;20453;-77
2023/04/27 01:41:47;;;;;;;8.68;2.67;;;6.70;91.30;;;;;;4945673;28;20488;-76
2023/04/27 01:44:13;;;;;;;7.93;2.47;;;6.70;91.60;;;;;;4953116;28;20027;-76
2023/04/27 01:46:39;;;;;;;9.57;3.95;;;6.70;91.60;;;;;;4968738;28;20105;-77
2023/04/27 01:49:05;;;;;;;8.00;3.38;;;6.70;91.60;;;;;;4952833;28;20053;-76
2023/04/27 01:51:31;;;;;;;7.90;3.15;;;6.70;91.50;;;;;;4970031;28;20015;-75
2023/04/27 01:53:57;;;;;;;8.50;3.13;;;6.60;91.50;;;;;;4963871;28;20363;-77
2023/04/27 01:56:23;;;;;;;6.32;3.47;;;6.70;91.40;;;;;;4951898;28;20110;-77
2023/04/27 01:58:48;;;;;;;6.57;3.50;;;6.60;91.30;;;;;;4950026;28;20496;-78
2023/04/27 02:01:14;;;;;;;6.20;3.20;;;6.60;91.50;;;;;;4962118;28;20236;-77
2023/04/27 02:03:40;;;;;;;9.07;3.97;;;6.60;91.50;;;;;;4944927;29;20027;-78
2023/04/27 02:06:06;;;;;;;9.02;3.95;;;6.60;91.60;;;;;;4961903;28;20081;-76
2023/04/27 02:08:33;;;;;;;7.82;3.72;;;6.60;91.50;;;;;;4947565;29;20031;-78
2023/04/27 02:10:59;;;;;;;10.70;3.70;;;6.60;91.50;;;;;;4936947;29;20027;-76
2023/04/27 02:13:25;;;;;;;8.02;3.97;;;6.60;91.60;;;;;;4963436;28;20551;-78
2023/04/27 02:15:51;;;;;;;8.18;4.03;;;6.50;91.70;;;;;;4959696;28;20090;-76
2023/04/27 02:18:17;;;;;;;7.60;3.35;;;6.50;91.70;;;;;;4968488;28;20106;-77
2023/04/27 02:20:43;;;;;;;12.20;3.33;;;6.50;91.80;;;;;;4952078;28;20744;-78
2023/04/27 02:23:08;;;;;;;9.43;3.95;;;6.40;91.70;;;;;;4966779;28;20076;-78
2023/04/27 02:25:37;;;;;;;9.25;3.83;;;6.40;91.80;;;;;;4950783;28;20443;-78
2023/04/27 02:28:05;;;;;;;8.18;3.72;;;6.40;92.00;;;;;;4970121;28;20031;-78
2023/04/27 02:30:30;;;;;;;10.48;3.85;;;6.40;92.20;;;;;;4952885;28;20023;-77
2023/04/27 02:32:59;;;;;;;14.52;3.60;;;6.40;92.40;;;;;;4951195;28;20531;-77
2023/04/27 02:35:25;;;;;;;9.80;4.00;;;6.30;92.50;;;;;;4970348;28;20026;-76
2023/04/27 02:37:51;;;;;;;8.32;4.30;;;6.30;92.60;;;;;;4952390;28;20034;-76
2023/04/27 02:40:17;;;;;;;9.40;4.78;;;6.30;92.60;;;;;;4966957;28;20459;-77
2023/04/27 02:42:43;;;;;;;7.55;4.13;;;6.30;92.60;;;;;;4961546;28;20643;-76
2023/04/27 02:45:10;;;;;;;8.68;4.72;;;6.20;92.70;;;;;;4950270;28;20465;-77
2023/04/27 02:47:35;;;;;;;8.52;3.45;;;6.20;92.80;;;;;;4953276;28;20126;-76
2023/04/27 02:50:01;;;;;;;10.15;3.60;;;6.20;92.80;;;;;;4945092;28;20114;-77
2023/04/27 02:52:27;;;;;;;10.32;5.10;;;6.20;92.80;;;;;;4951315;28;20027;-77
2023/04/27 02:54:52;;;;;;;9.02;3.70;;;6.20;92.90;;;;;;4965192;28;20026;-76
2023/04/27 02:57:18;;;;;;;8.32;3.35;;;6.20;93.00;;;;;;4957579;28;20134;-77
2023/04/27 02:59:44;;;;;;;8.18;3.75;;;6.20;93.00;;;;;;4966345;28;20046;-77
2023/04/27 03:02:10;;;;;;;8.25;3.75;;;6.20;93.00;;;;;;4947836;28;20047;-76
2023/04/27 03:04:37;;;;;;;8.15;3.80;;;6.20;92.80;;;;;;4966422;28;20030;-77
2023/04/27 03:07:03;;;;;;;7.85;3.80;;;6.10;92.80;;;;;;4959664;28;20019;-75
2023/04/27 03:09:28;;;;;;;12.32;3.88;;;6.10;92.90;;;;;;4968259;28;20035;-77
2023/04/27 03:11:54;;;;;;;11.80;4.50;;;6.20;92.90;;;;;;4972271;28;20102;-76
2023/04/27 03:14:22;;;;;;;6.75;2.67;;;6.10;92.90;;;;;;4971751;28;20038;-78
2023/04/27 03:16:47;;;;;;;10.85;3.45;;;6.10;92.70;;;;;;4967967;28;20043;-77
2023/04/27 03:19:13;;;;;;;12.95;4.70;;;6.10;92.70;;;;;;4973484;28;20034;-76
2023/04/27 03:21:39;;;;;;;8.65;3.28;;;6.10;92.80;;;;;;4970268;28;20018;-77
2023/04/27 03:24:05;;;;;;;8.68;3.83;;;6.10;92.70;;;;;;4947736;28;20026;-77
2023/04/27 03:26:30;;;;;;;6.22;3.70;;;6.10;92.70;;;;;;4952439;28;20109;-78
2023/04/27 03:28:56;;;;;;;6.20;3.47;;;6.10;92.70;;;;;;4949052;29;20382;-77
2023/04/27 03:31:22;;;;;;;9.45;4.38;;;6.10;92.70;;;;;;4954362;28;20389;-77
2023/04/27 03:33:48;;;;;;;7.47;3.70;;;6.00;92.80;;;;;;4939026;29;20051;-77
2023/04/27 03:36:14;;;;;;;7.90;4.38;;;6.10;93.00;;;;;;4948790;29;20321;-77
2023/04/27 03:38:39;;;;;;;11.30;4.25;;;6.10;93.10;;;;;;4970939;28;20045;-77
2023/04/27 03:41:05;;;;;;;13.27;4.35;;;6.00;93.40;;;;;;4963663;28;20027;-76
2023/04/27 03:43:31;;;;;;;7.50;4.18;;;6.00;93.20;;;;;;4948312;28;20452;-77
2023/04/27 03:45:56;;;;;;;9.50;3.22;;;6.00;93.10;;;;;;4962944;28;20037;-77
2023/04/27 03:48:22;;;;;;;8.57;3.55;;;6.00;93.10;;;;;;4971802;28;20034;-77
2023/04/27 03:50:48;;;;;;;8.13;3.35;;;6.00;93.10;;;;;;4959036;28;20038;-76
2023/04/27 03:53:14;;;;;;;8.70;3.78;;;6.00;93.00;;;;;;4972911;28;20029;-78
2023/04/27 03:55:41;;;;;;;8.55;3.90;;;6.00;92.90;;;;;;4958607;28;20097;-77
2023/04/27 03:58:09;;;;;;;8.55;3.25;;;6.00;92.90;;;;;;4954094;28;20409;-77
2023/04/27 04:00:36;;;;;;;10.73;4.03;;;6.00;92.90;;;;;;4951842;28;20382;-78
2023/04/27 04:03:02;;;;;;;7.15;3.80;;;6.00;92.70;;;;;;4970895;28;20105;-77
2023/04/27 04:05:29;;;;;;;5.75;3.10;;;5.90;92.60;;;;;;4958588;28;20023;-77
2023/04/27 04:07:55;;;;;;;6.97;3.20;;;5.90;92.60;;;;;;4944888;28;20035;-77
2023/04/27 04:10:21;;;;;;;10.23;4.28;;;5.90;92.60;;;;;;4957689;28;20027;-76
2023/04/27 04:12:47;;;;;;;8.80;4.25;;;5.90;92.60;;;;;;4940648;28;20027;-76
2023/04/27 04:15:12;;;;;;;8.35;3.53;;;5.90;92.70;;;;;;4966282;28;20102;-77
2023/04/27 04:17:38;;;;;;;9.00;4.18;;;5.90;93.00;;;;;;4967199;28;20022;-77
2023/04/27 04:20:10;;;;;;;11.57;4.00;;;5.90;92.70;;;;;;4951518;28;20561;-76
2023/04/27 04:22:38;;;;;;;10.43;4.18;;;5.90;92.70;;;;;;4967314;28;20022;-77
2023/04/27 04:25:06;;;;;;;14.45;3.78;;;5.90;92.70;;;;;;4960937;28;20111;-76
2023/04/27 04:27:32;;;;;;;10.48;4.78;;;5.90;92.60;;;;;;4943900;28;20113;-76
2023/04/27 04:29:59;;;;;;;10.93;4.65;;;5.90;92.70;;;;;;4966445;28;20081;-76
2023/04/27 04:32:28;;;;;;;10.02;4.80;;;5.90;92.90;;;;;;4963945;28;20074;-77
2023/04/27 04:34:54;;;;;;;11.88;4.80;;;5.90;92.70;;;;;;4963614;28;20102;-78
2023/04/27 04:37:20;;;;;;;8.65;4.63;;;5.90;92.70;;;;;;4962439;28;20126;-77
2023/04/27 04:39:46;;;;;;;8.88;4.47;;;5.90;92.70;;;;;;4954660;28;20027;-77
2023/04/27 04:42:12;;;;;;;12.23;5.45;;;5.90;92.80;;;;;;4940878;28;20029;-76
2023/04/27 04:44:37;;;;;;;9.93;5.22;;;5.90;92.80;;;;;;4945136;29;20180;-76
2023/04/27 04:47:04;;;;;;;13.02;5.22;;;5.90;92.90;;;;;;4958895;28;20023;-76
2023/04/27 04:49:29;;;;;;;12.48;5.40;;;6.00;92.90;;;;;;4953205;28;20023;-78
2023/04/27 04:51:55;;;;;;;12.05;5.22;;;6.00;93.00;;;;;;4967831;28;20034;-76
2023/04/27 04:54:21;;;;;;;8.88;5.25;;;6.00;93.10;;;;;;4963208;28;20034;-76
2023/04/27 04:56:46;;;;;;;13.00;6.32;;;6.00;93.20;;;;;;4960776;28;20042;-76
2023/04/27 04:59:12;;;;;;;12.93;6.20;;;6.00;93.50;;;;;;4963636;28;20031;-77
2023/04/27 05:01:38;;;;;;;14.63;6.43;;;6.10;93.30;;;;;;4971660;28;20106;-76
2023/04/27 05:04:03;;;;;;;15.93;6.95;;;6.10;93.30;;;;;;4962510;28;20051;-76
2023/04/27 05:06:29;;;;;;;15.65;7.53;;;6.10;93.30;;;;;;4968306;28;20022;-77
2023/04/27 05:08:55;;;;;;;10.20;6.30;;;6.20;93.50;;;;;;4961454;28;20050;-76
2023/04/27 05:11:21;;;;;;;13.90;7.15;;;6.20;93.50;;;;;;4952934;28;20034;-76
2023/04/27 05:13:46;;;;;;;15.68;7.60;;;6.20;93.60;;;;;;4952045;28;20035;-76
2023/04/27 05:16:12;;;;;;;13.00;7.10;;;6.20;93.60;;;;;;4965812;28;20035;-76
2023/04/27 05:18:38;;;;;;;10.85;7.25;;;6.30;93.70;;;;;;4952702;28;20023;-77
2023/04/27 05:21:04;;;;;;;11.38;7.22;;;6.30;93.70;;;;;;4964616;28;20030;-75
2023/04/27 05:23:30;;;;;;;13.57;8.13;;;6.30;93.80;;;;;;4951805;28;20011;-76
2023/04/27 05:25:55;;;;;;;17.98;8.45;;;6.40;93.90;;;;;;4961031;28;20105;-76
2023/04/27 05:28:21;;;;;;;11.45;7.32;;;6.40;93.90;;;;;;4965342;28;20501;-76
2023/04/27 05:30:46;;;;;;;14.35;7.63;;;6.50;94.00;;;;;;4968390;28;20450;-77
2023/04/27 05:33:12;;;;;;;14.27;7.10;;;6.50;93.90;;;;;;4960770;28;20059;-75
2023/04/27 05:35:38;;;;;;;11.40;7.53;;;6.60;94.00;;;;;;4949400;28;20037;-76
2023/04/27 05:38:04;;;;;;;11.98;6.40;;;6.60;93.80;;;;;;4950653;28;20035;-76
2023/04/27 05:40:29;;;;;;;12.80;6.63;;;6.70;93.90;;;;;;4969417;28;20114;-76
2023/04/27 05:42:56;;;;;;;15.60;7.28;;;6.80;93.80;;;;;;4968807;28;20033;-76
2023/04/27 05:45:22;;;;;;;13.05;8.00;;;6.80;93.70;;;;;;4951484;28;20026;-76
2023/04/27 05:47:47;;;;;;;13.65;8.57;;;6.80;93.50;;;;;;4935203;29;20031;-76
2023/04/27 05:50:13;;;;;;;12.60;6.93;;;6.90;93.40;;;;;;4963336;28;20090;-76
2023/04/27 05:52:39;;;;;;;11.35;7.68;;;7.00;93.30;;;;;;4957296;28;20054;-76
2023/04/27 05:55:06;;;;;;;10.70;6.90;;;7.10;93.30;;;;;;4944594;28;20034;-76
2023/04/27 05:57:32;;;;;;;13.43;6.10;;;7.20;93.00;;;;;;4951667;28;20545;-76
2023/04/27 05:59:59;;;;;;;13.20;6.55;;;7.20;92.90;;;;;;4937905;28;20114;-76
2023/04/27 06:02:25;;;;;;;10.25;6.10;;;7.30;92.80;;;;;;4963324;28;20025;-75
2023/04/27 06:04:51;;;;;;;11.40;6.18;;;7.30;92.70;;;;;;4963197;28;20027;-76
2023/04/27 06:07:17;;;;;;;10.25;5.93;;;7.40;92.60;;;;;;4951546;28;20015;-77
2023/04/27 06:09:42;;;;;;;9.98;5.47;;;7.50;92.70;;;;;;4951202;28;20385;-76
2023/04/27 06:12:08;;;;;;;12.20;7.00;;;7.60;92.60;;;;;;4965040;28;20035;-76
2023/04/27 06:14:35;;;;;;;8.82;5.53;;;7.70;92.50;;;;;;4949433;28;20097;-77
2023/04/27 06:17:02;;;;;;;14.13;6.35;;;7.80;92.30;;;;;;4966821;28;20031;-77
2023/04/27 06:19:27;;;;;;;12.55;6.70;;;7.90;92.10;;;;;;4956212;28;20023;-76
2023/04/27 06:21:54;;;;;;;11.25;5.80;;;8.00;91.60;;;;;;4961063;28;20039;-75
2023/04/27 06:24:21;;;;;;;14.27;7.88;;;8.10;91.70;;;;;;4960460;28;20077;-77
2023/04/27 06:26:49;;;;;;;13.45;6.97;;;8.10;91.60;;;;;;4950722;28;20027;-76
2023/04/27 06:29:14;;;;;;;16.40;7.28;;;8.20;91.20;;;;;;4968443;28;20066;-76
2023/04/27 06:31:40;;;;;;;11.20;6.60;;;8.30;90.80;;;;;;4966378;28;20481;-76
2023/04/27 06:34:13;;;;;;;9.95;6.32;;;8.40;90.70;;;;;;4960171;28;20075;-76
2023/04/27 06:36:38;;;;;;;14.77;7.40;;;8.40;90.40;;;;;;4956857;28;20049;-76
2023/04/27 06:39:04;;;;;;;11.10;5.90;;;8.50;90.50;;;;;;4974654;28;20023;-76
2023/04/27 06:41:32;;;;;;;13.98;6.10;;;8.50;89.30;;;;;;4962819;28;20117;-76
2023/04/27 06:43:58;;;;;;;8.88;5.43;;;8.50;90.00;;;;;;4973005;28;20019;-76
2023/04/27 06:46:23;;;;;;;9.18;5.60;;;8.70;90.10;;;;;;4975613;28;20348;-75
2023/04/27 06:48:51;;;;;;;9.68;4.15;;;8.80;89.30;;;;;;4962798;28;20051;-79
2023/04/27 06:51:17;;;;;;;9.48;4.75;;;9.10;91.30;;;;;;4961681;28;20027;-80
2023/04/27 06:53:42;;;;;;;7.00;3.30;;;9.60;91.30;;;;;;4965879;28;20126;-80
2023/04/27 06:56:10;;;;;;;8.57;4.28;;;10.10;90.60;;;;;;4961574;28;20038;-79
2023/04/27 06:58:36;;;;;;;9.30;5.18;;;10.70;90.20;;;;;;4973269;28;20078;-81
2023/04/27 07:01:03;;;;;;;10.10;4.88;;;11.20;89.40;;;;;;4954688;28;20032;-81
2023/04/27 07:03:30;;;;;;;10.80;4.70;;;11.60;88.90;;;;;;4968896;28;20567;-81
2023/04/27 07:05:56;;;;;;;8.30;4.25;;;11.70;87.30;;;;;;4975256;28;20023;-81
2023/04/27 07:08:22;;;;;;;6.20;3.30;;;11.60;87.20;;;;;;4977820;28;20043;-81
2023/04/27 07:10:47;;;;;;;8.38;3.25;;;11.60;87.00;;;;;;4975701;28;20038;-80
2023/04/27 07:13:13;;;;;;;7.40;3.70;;;11.50;85.40;;;;;;4953861;28;20317;-82
2023/04/27 07:15:38;;;;;;;8.13;3.15;;;11.40;85.10;;;;;;4970054;28;20027;-80
2023/04/27 07:18:04;;;;;;;4.32;2.35;;;11.20;84.60;;;;;;4969734;28;20023;-82
2023/04/27 07:20:30;;;;;;;5.75;2.17;;;11.10;85.30;;;;;;4967995;28;20027;-81
2023/04/27 07:22:56;;;;;;;6.00;2.70;;;11.20;85.90;;;;;;4973300;28;20070;-81
2023/04/27 07:25:22;;;;;;;6.30;2.60;;;11.30;85.50;;;;;;4971363;28;20027;-82
2023/04/27 07:27:48;;;;;;;7.20;2.70;;;11.40;85.20;;;;;;4974095;28;20452;-81
2023/04/27 07:30:16;;;;;;;8.57;2.83;;;11.40;85.30;;;;;;4973088;28;20026;-82
2023/04/27 07:32:42;;;;;;;4.38;2.53;;;11.60;84.90;;;;;;4973660;28;20079;-83
2023/04/27 07:35:08;;;;;;;5.32;2.65;;;11.70;84.10;;;;;;4974136;28;20065;-82
2023/04/27 07:37:39;;;;;;;7.20;2.40;;;11.80;84.10;;;;;;4954874;28;20889;-82
2023/04/27 07:40:13;;;;;;;5.13;2.53;;;11.90;84.00;;;;;;4971443;28;20019;-82
2023/04/27 07:42:40;;;;;;;5.32;2.00;;;11.90;83.60;;;;;;4973738;28;20018;-83
2023/04/27 07:45:10;;;;;;;5.40;2.85;;;12.00;83.70;;;;;;4976332;28;20033;-81
2023/04/27 07:47:37;;;;;;;6.45;2.60;;;12.00;82.50;;;;;;4962871;28;20584;-82
2023/04/27 07:50:08;;;;;;;5.93;2.45;;;12.10;81.90;;;;;;4976825;28;20019;-81
2023/04/27 07:52:36;;;;;;;4.68;2.30;;;12.10;81.90;;;;;;4961079;28;20027;-80
2023/04/27 07:55:02;;;;;;;7.13;3.20;;;12.10;82.60;;;;;;4955593;28;20436;-82
2023/04/27 07:57:34;;;;;;;4.72;2.20;;;12.30;82.20;;;;;;4964355;28;20023;-80
2023/04/27 08:00:01;;;;;;;5.15;2.00;;;12.40;81.30;;;;;;4973601;28;20022;-80
2023/04/27 08:02:30;;;;;;;5.95;2.25;;;12.40;80.90;;;;;;4971476;28;20497;-81
2023/04/27 08:04:56;;;;;;;5.68;2.22;;;12.50;80.50;;;;;;4964797;28;20023;-82
2023/04/27 08:07:21;;;;;;;6.22;2.00;;;12.70;79.70;;;;;;4971779;28;20162;-80
2023/04/27 08:09:51;;;;;;;4.63;2.05;;;12.70;78.90;;;;;;4964062;28;20039;-81
2023/04/27 08:12:18;;;;;;;5.10;2.05;;;12.80;78.90;;;;;;4971473;28;20432;-80
2023/04/27 08:14:45;;;;;;;4.82;1.88;;;12.80;79.50;;;;;;4962302;28;20027;-81
2023/04/27 08:17:11;;;;;;;5.15;2.47;;;12.80;79.40;;;;;;4967977;28;20037;-82
2023/04/27 08:19:37;;;;;;;5.78;2.08;;;12.90;80.20;;;;;;4967751;28;20019;-81
2023/04/27 08:22:02;;;;;;;4.32;2.33;;;12.90;79.60;;;;;;4962060;28;20147;-82
2023/04/27 08:24:28;;;;;;;3.88;1.42;;;13.20;78.70;;;;;;4963586;28;20385;-82
2023/04/27 08:26:54;;;;;;;3.85;1.63;;;13.30;78.60;;;;;;4973238;28;20027;-82
2023/04/27 08:29:20;;;;;;;5.63;1.50;;;13.40;76.70;;;;;;4963942;28;20039;-81
2023/04/27 08:31:46;;;;;;;5.25;2.08;;;13.40;77.70;;;;;;4949763;29;20445;-81
2023/04/27 08:34:12;;;;;;;4.43;1.70;;;13.50;77.60;;;;;;4962462;28;20403;-82
2023/04/27 08:36:38;;;;;;;6.43;2.40;;;13.60;78.50;;;;;;4972088;28;20400;-84
2023/04/27 08:39:06;;;;;;;4.45;1.88;;;13.50;78.80;;;;;;4963599;28;20115;-81
2023/04/27 08:41:32;;;;;;;5.43;1.80;;;13.50;78.80;;;;;;4963921;28;20038;-80
2023/04/27 08:43:58;;;;;;;5.88;1.88;;;13.40;78.90;;;;;;4965795;28;20033;-81
2023/04/27 08:46:34;;;;;;;2.85;1.60;;;13.40;79.60;;;;;;4970504;28;20086;-81
2023/04/27 08:49:00;;;;;;;4.50;1.50;;;13.40;79.40;;;;;;4960298;28;20536;-81
2023/04/27 08:51:27;;;;;;;6.22;1.80;;;13.50;78.70;;;;;;4964982;28;20027;-82
2023/04/27 08:53:56;;;;;;;4.75;1.98;;;13.80;78.70;;;;;;4965198;28;20022;-82
2023/04/27 08:56:24;;;;;;;3.40;1.90;;;13.90;79.90;;;;;;4968450;28;20105;-82
2023/04/27 08:58:53;;;;;;;6.15;2.60;;;14.00;79.00;;;;;;4971286;28;20046;-77
2023/04/27 09:01:21;;;;;;;4.85;2.45;;;14.10;76.60;;;;;;4959314;28;20019;-78
2023/04/27 09:04:04;;;;;;;6.38;1.92;;;13.90;75.60;;;;;;4968211;28;20026;-77
2023/04/27 09:06:37;;;;;;;4.72;2.10;;;13.80;75.80;;;;;;4961408;28;20142;-77
2023/04/27 09:09:03;;;;;;;10.48;3.38;;;13.70;77.70;;;;;;4967277;28;20094;-79
2023/04/27 09:11:31;;;;;;;7.15;2.30;;;13.70;74.70;;;;;;4958191;28;20023;-77
2023/04/27 09:13:59;;;;;;;5.13;2.55;;;13.70;72.60;;;;;;4960024;28;20103;-77
2023/04/27 09:16:27;;;;;;;5.75;2.90;;;13.80;72.60;;;;;;4971360;28;20426;-77
2023/04/27 09:18:53;;;;;;;6.97;2.95;;;14.00;71.90;;;;;;4967058;28;20035;-76
2023/04/27 09:21:27;;;;;;;8.75;2.80;;;14.00;74.20;;;;;;4958421;28;20393;-78
2023/04/27 09:23:53;;;;;;;6.25;2.25;;;14.10;72.80;;;;;;4953318;28;20485;-78
2023/04/27 09:26:24;;;;;;;6.55;2.80;;;14.20;75.50;;;;;;4958842;28;20397;-78
2023/04/27 09:28:52;;;;;;;3.30;1.77;;;14.40;76.40;;;;;;4956185;28;20038;-78
2023/04/27 09:31:19;;;;;;;6.20;2.20;;;14.50;81.40;;;;;;4959238;28;20051;-77
2023/04/27 09:33:54;;;;;;;4.47;1.92;;;14.50;82.80;;;;;;4979209;28;20197;-78
2023/04/27 09:36:22;;;;;;;4.75;1.98;;;14.70;82.90;;;;;;4954492;28;20595;-78
2023/04/27 09:38:48;;;;;;;3.22;2.05;;;14.80;82.50;;;;;;4969897;28;20071;-77
2023/04/27 09:41:15;;;;;;;3.85;1.70;;;14.80;83.50;;;;;;4970864;28;20015;-79
2023/04/27 09:43:44;;;;;;;4.65;1.90;;;15.00;84.30;;;;;;4962553;28;20019;-78
2023/04/27 09:46:14;;;;;;;4.88;1.67;;;15.30;83.00;;;;;;4956148;28;20114;-78
2023/04/27 09:48:40;;;;;;;5.28;2.40;;;15.40;83.60;;;;;;4966331;28;20109;-79
2023/04/27 09:51:06;;;;;;;4.78;1.85;;;15.50;82.20;;;;;;4965496;28;20035;-77
2023/04/27 09:53:43;;;;;;;7.07;2.17;;;15.60;83.30;;;;;;4959617;28;20060;-79
2023/04/27 09:56:46;;;;;;;3.20;1.70;;;15.50;85.00;;;;;;4967250;28;20038;-78
2023/04/27 09:59:26;;;;;;;5.07;1.50;;;15.50;83.90;;;;;;4968747;28;20444;-79
2023/04/27 10:01:59;;;;;;;5.35;2.00;;;15.50;86.20;;;;;;4959956;28;20481;-79
2023/04/27 10:04:48;;;;;;;4.65;1.85;;;15.50;86.20;;;;;;4946545;29;20023;-79
2023/04/27 10:07:16;;;;;;;4.75;1.85;;;15.50;86.60;;;;;;4963954;28;20030;-78
2023/04/27 10:09:46;;;;;;;5.43;2.08;;;15.60;86.70;;;;;;4966526;28;20045;-77
2023/04/27 10:12:25;;;;;;;5.45;2.95;;;15.80;86.90;;;;;;4949224;28;20054;-78
2023/04/27 10:14:53;;;;;;;4.78;2.80;;;15.90;64.10;;;;;;4966085;28;20033;-76
2023/04/27 10:17:24;;;;;;;3.55;1.80;;;15.90;56.40;;;;;;4969102;28;20105;-78
2023/04/27 10:19:58;;;;;;;6.53;2.80;;;15.90;66.80;;;;;;4968789;28;20023;-77
2023/04/27 10:22:39;;;;;;;7.97;2.78;;;16.10;66.60;;;;;;4949772;28;20020;-76
2023/04/27 10:25:21;;;;;;;4.97;3.25;;;16.20;65.20;;;;;;4962728;28;20031;-78
2023/04/27 10:27:55;;;;;;;6.07;3.80;;;16.20;59.40;;;;;;4950119;28;20519;-77
2023/04/27 10:30:26;;;;;;;8.02;3.38;;;16.30;54.60;;;;;;4965064;28;20166;-77
2023/04/27 10:32:56;;;;;;;5.30;3.10;;;16.20;56.20;;;;;;4957051;28;20055;-79
2023/04/27 10:35:35;;;;;;;5.82;2.50;;;16.30;56.60;;;;;;4958971;28;20115;-77
2023/04/27 10:38:05;;;;;;;5.75;2.78;;;16.30;68.60;;;;;;4949874;28;20031;-77
2023/04/27 10:40:33;;;;;;;7.40;3.55;;;16.40;63.50;;;;;;4944166;29;20054;-77
2023/04/27 10:43:11;;;;;;;5.70;2.70;;;16.60;62.00;;;;;;4951186;28;20026;-78
2023/04/27 10:45:37;;;;;;;5.70;2.00;;;16.80;58.90;;;;;;4966585;28;20022;-79
2023/04/27 10:48:04;;;;;;;6.55;3.58;;;17.10;71.40;;;;;;4968269;28;20038;-78
2023/04/27 10:50:30;;;;;;;4.78;2.47;;;17.20;56.60;;;;;;4968273;28;20027;-77
2023/04/27 10:53:06;;;;;;;6.45;2.65;;;17.30;69.70;;;;;;4948933;28;20023;-76
2023/04/27 10:55:36;;;;;;;7.68;4.38;;;17.40;69.00;;;;;;4967708;28;20073;-79
2023/04/27 10:58:02;;;;;;;6.95;2.95;;;17.20;50.50;;;;;;4946515;28;20050;-78
2023/04/27 11:00:35;;;;;;;4.75;2.83;;;17.00;58.30;;;;;;4967811;28;20022;-77
2023/04/27 11:03:15;;;;;;;3.55;1.88;;;17.10;61.20;;;;;;4943435;28;20026;-77
2023/04/27 11:05:43;;;;;;;8.13;2.63;;;17.20;65.20;;;;;;4950238;28;20086;-77
2023/04/27 11:08:11;;;;;;;7.70;3.20;;;17.30;65.20;;;;;;4940606;29;20116;-78
2023/04/27 11:10:44;;;;;;;5.53;3.17;;;17.60;72.10;;;;;;4956004;28;20066;-78
2023/04/27 11:13:14;;;;;;;7.50;3.70;;;17.70;59.20;;;;;;4958395;28;20371;-78
2023/04/27 11:15:43;;;;;;;10.52;4.13;;;17.80;55.30;;;;;;4938140;28;20027;-77
2023/04/27 11:18:09;;;;;;;10.20;3.73;;;17.80;53.10;;;;;;4955393;28;20548;-77
2023/04/27 11:20:35;;;;;;;4.88;2.50;;;17.90;52.40;;;;;;4964546;28;20306;-78
2023/04/27 11:23:01;;;;;;;5.22;3.47;;;18.00;58.40;;;;;;4949310;28;20031;-78
2023/04/27 11:25:28;;;;;;;8.57;3.35;;;17.90;47.80;;;;;;4964028;28;20082;-78
2023/04/27 11:27:54;;;;;;;7.50;3.70;;;17.90;53.40;;;;;;4951898;28;20026;-79
2023/04/27 11:30:21;;;;;;;7.47;3.50;;;18.00;48.60;;;;;;4967442;28;20043;-79
2023/04/27 11:32:47;;;;;;;5.88;4.03;;;18.10;46.70;;;;;;4967285;28;20039;-77
2023/04/27 11:35:13;;;;;;;8.40;3.38;;;18.20;46.40;;;;;;4955327;28;20503;-76
2023/04/27 11:37:39;;;;;;;7.38;4.18;;;18.40;52.50;;;;;;4972544;28;20512;-78
2023/04/27 11:40:07;;;;;;;6.55;3.33;;;18.50;49.00;;;;;;4964298;28;20238;-79
2023/04/27 11:42:33;;;;;;;6.30;3.08;;;18.60;48.90;;;;;;4962635;28;20015;-78
2023/04/27 11:45:01;;;;;;;6.65;3.70;;;18.70;49.40;;;;;;4969446;28;20073;-76
2023/04/27 11:47:28;;;;;;;4.93;2.40;;;18.90;46.40;;;;;;4969135;28;20023;-78
2023/04/27 11:49:59;;;;;;;7.35;3.13;;;19.00;52.60;;;;;;4943548;29;20042;-78
2023/04/27 11:52:29;;;;;;;4.28;2.20;;;18.90;45.60;;;;;;4963454;28;20551;-78
2023/04/27 11:54:57;;;;;;;6.38;2.85;;;18.80;56.50;;;;;;4947864;28;20133;-79
2023/04/27 11:57:25;;;;;;;9.23;4.40;;;18.80;62.70;;;;;;4965059;28;20031;-79
2023/04/27 11:59:52;;;;;;;5.53;2.30;;;18.90;53.80;;;;;;4969335;28;20054;-78
2023/04/27 12:02:23;;;;;;;9.18;3.97;;;18.90;61.80;;;;;;4968752;28;20038;-79
2023/04/27 12:04:52;;;;;;;5.32;2.53;;;18.70;48.60;;;;;;4948559;28;20039;-79
2023/04/27 12:07:18;;;;;;;5.18;3.30;;;18.70;63.10;;;;;;4966923;28;20042;-79
2023/04/27 12:09:45;;;;;;;6.60;3.33;;;18.50;49.70;;;;;;4963703;28;20035;-80
2023/04/27 12:12:12;;;;;;;5.60;3.03;;;18.40;49.90;;;;;;4963432;28;20031;-78
2023/04/27 12:14:39;;;;;;;6.53;3.60;;;18.50;48.50;;;;;;4970451;28;20030;-78
2023/04/27 12:17:05;;;;;;;7.63;3.95;;;18.60;52.80;;;;;;4971882;28;20096;-78
2023/04/27 12:19:31;;;;;;;6.72;3.20;;;18.90;48.80;;;;;;4966876;28;20109;-79
2023/04/27 12:21:57;;;;;;;5.60;3.00;;;18.70;50.10;;;;;;4958427;28;20158;-79
2023/04/27 12:24:23;;;;;;;10.85;4.25;;;18.80;51.40;;;;;;4967017;28;20138;-78
2023/04/27 12:26:50;;;;;;;5.15;2.53;;;18.90;52.20;;;;;;4967585;28;20031;-80
2023/04/27 12:29:16;;;;;;;4.47;2.25;;;18.90;61.20;;;;;;4956472;28;20118;-77
2023/04/27 12:31:42;;;;;;;4.28;1.73;;;19.20;69.70;;;;;;4964443;28;20042;-78
2023/04/27 12:34:07;;;;;;;4.85;1.92;;;19.40;74.90;;;;;;4962745;28;20051;-78
2023/04/27 12:36:33;;;;;;;4.30;1.90;;;19.50;72.30;;;;;;4958393;28;20034;-78
2023/04/27 12:39:12;;;;;;;9.02;3.40;;;19.50;69.50;;;;;;4969754;28;20027;-78
2023/04/27 12:41:38;;;;;;;8.48;3.30;;;19.30;65.50;;;;;;4963224;28;20028;-76
2023/04/27 12:44:10;;;;;;;6.63;3.35;;;19.20;55.90;;;;;;4969258;28;20049;-80
2023/04/27 12:46:36;;;;;;;5.55;2.42;;;19.20;54.40;;;;;;4971661;28;20031;-78
2023/04/27 12:49:01;;;;;;;6.38;3.35;;;19.30;60.90;;;;;;4969597;28;20049;-79
2023/04/27 12:51:27;;;;;;;4.75;2.92;;;19.40;51.60;;;;;;4957034;28;20039;-78